Inglewood, CA (90308)

6:34 PM PST on December 19, 2014 (GMT -0800)
Civic Center | Change Station
CLOSE
Current Station
Personal Weather Station
Location: Inglewood, CA
Elevation: 138 ft
Nearby Weather Stations
Active Advisory: High Surf Advisory

Elev 138 ft 33.96 °N, 118.36 °W | Updated 8 minutes ago

Clear
Clear
59.5 °F
Feels Like 59.5 °F
N
2.0
Wind Variable Wind from West
Gusts 8.0 mph

Today
High -- | Low -- °F
--% Chance of Precip.
Yesterday
High -- | Low -- °F
Precip. -- in
6:53 AM 4:47 PM
Waning Crescent, 5% visible
Pressure 30.18 in
Visibility 10.0 miles
Clouds Clear
Dew Point 53 °F
Humidity 78%
Rainfall 0.00 in
Snow Depth Not available.
UV 0 out of 12
Pollen 3.80 out of 12
Air Quality Not available.
Flu Activity Not available.
METAR KHHR 200153Z AUTO 28004KT 10SM CLR 17/11 A3017 RMK AO2 SLP218 T01670106 TSNO

More Conditions Fewer Conditions

Pressure 30.18 in
Visibility 10.0 miles
Clouds Clear
Dew Point 53 °F
Humidity 78%
Rainfall 0.00 in
Snow Depth Not available.
UV 0 out of 12
Pollen 3.80 out of 12
Air Quality Not available.
Flu Activity Not available.
METAR KHHR 200153Z AUTO 28004KT 10SM CLR 17/11 A3017 RMK AO2 SLP218 T01670106 TSNO

More Conditions Fewer Conditions

10-Day Weather Forecast

Almanac

Astronomy

Dec. 19, 2014 Rise Set
Actual Time
Civil Twilight
Nautical Twilight
Astronomical Twilight
Moon
Length of Visible Light
Length of Day
Tomorrow will be .
, % of the Moon is Illuminated

Today's Extremes

State Highs State Lows

Community

WunderPhotos

Upload Photos

1,779,114 photos uploaded!

WunderBlogs® & News

Nearby

Air Quality

  Air Quality AQ Index Pollutant
Not available.

Snow Depth

Station Depth Elevation

Earthquake Activity

City Distance Mag. Time & Date
Minimum magnitude displayed is 2.5.

Coastal Water Temperatures

Place Temperature

Nearby Weather Stations